createdAt,value
2024-04-12T00:02:13.852Z,21.77
2024-04-12T00:04:44.446Z,28.88
2024-04-12T00:07:18.344Z,24.25
2024-04-12T00:09:55.163Z,27.67
2024-04-12T00:12:30.314Z,25.85
2024-04-12T00:15:03.773Z,26.80
2024-04-12T00:17:33.812Z,25.10
2024-04-12T00:20:03.441Z,23.92
2024-04-12T00:22:33.693Z,23.38
2024-04-12T00:25:05.712Z,27.40
2024-04-12T00:27:35.800Z,24.33
2024-04-12T00:30:05.991Z,26.30
2024-04-12T00:32:37.522Z,24.60
2024-04-12T00:35:12.819Z,28.13
2024-04-12T00:37:54.611Z,26.77
2024-04-12T00:40:24.064Z,26.92
2024-04-12T00:42:58.762Z,28.30
2024-04-12T00:45:40.924Z,24.85
2024-04-12T00:48:10.438Z,24.95
2024-04-12T00:50:41.719Z,27.50
2024-04-12T00:53:11.101Z,25.25
2024-04-12T00:55:42.632Z,26.65
2024-04-12T00:58:12.607Z,29.67
2024-04-12T01:00:48.391Z,30.90
2024-04-12T01:03:19.697Z,29.85
2024-04-12T01:05:48.834Z,27.85
2024-04-12T01:08:17.908Z,30.80
2024-04-12T01:10:46.841Z,26.15
2024-04-12T01:13:16.925Z,27.33
2024-04-12T01:15:45.755Z,27.17
2024-04-12T01:18:16.650Z,26.15
2024-04-12T01:20:47.035Z,32.22
2024-04-12T01:23:18.428Z,29.35
2024-04-12T01:25:49.023Z,32.57
2024-04-12T01:28:18.287Z,34.28
2024-04-12T01:30:48.158Z,32.63
2024-04-12T01:33:17.371Z,34.27
2024-04-12T01:35:47.362Z,31.88
2024-04-12T01:38:21.071Z,32.70
2024-04-12T01:41:06.398Z,36.90
2024-04-12T01:43:37.396Z,36.58
2024-04-12T01:46:09.555Z,33.63
2024-04-12T01:48:38.688Z,34.25
2024-04-12T01:51:13.848Z,31.73
2024-04-12T01:53:43.029Z,33.83
2024-04-12T01:56:11.856Z,39.58
2024-04-12T01:58:40.941Z,34.80
2024-04-12T02:01:13.467Z,43.33
2024-04-12T02:03:43.552Z,37.70
2024-04-12T02:06:17.707Z,37.07
2024-04-12T02:08:46.841Z,35.80
2024-04-12T02:11:24.360Z,37.30
2024-04-12T02:13:53.978Z,42.20
2024-04-12T02:16:22.911Z,43.80
2024-04-12T02:18:52.181Z,45.20
2024-04-12T02:21:21.108Z,44.22
2024-04-12T02:23:54.388Z,42.07
2024-04-12T02:26:24.507Z,43.72
2024-04-12T02:28:53.951Z,42.35
2024-04-12T02:31:22.763Z,40.20
2024-04-12T02:33:55.455Z,50.15
2024-04-12T02:36:26.721Z,45.97
2024-04-12T02:38:55.705Z,39.65
2024-04-12T02:41:24.654Z,45.00
2024-04-12T02:43:53.882Z,40.63
2024-04-12T02:46:24.052Z,41.15
2024-04-12T02:48:53.880Z,41.33
2024-04-12T02:51:23.987Z,44.05
2024-04-12T02:53:59.170Z,43.00
2024-04-12T02:56:28.586Z,44.00
2024-04-12T02:58:59.544Z,39.05
2024-04-12T03:01:28.376Z,37.10
2024-04-12T03:03:58.263Z,39.80
2024-04-12T03:06:27.778Z,42.47
2024-04-12T03:09:02.175Z,39.88
2024-04-12T03:11:39.298Z,41.20
2024-04-12T03:14:13.514Z,37.47
2024-04-12T03:16:43.064Z,36.70
2024-04-12T03:19:14.926Z,36.90
2024-04-12T03:21:43.934Z,31.67
2024-04-12T03:24:13.414Z,32.40
2024-04-12T03:26:45.319Z,32.95
2024-04-12T03:29:14.268Z,30.85
2024-04-12T03:31:47.875Z,29.97
2024-04-12T03:34:16.992Z,25.45
2024-04-12T03:36:49.520Z,30.95
2024-04-12T03:39:23.932Z,29.57
2024-04-12T03:42:14.697Z,36.30
2024-04-12T03:44:44.313Z,26.83
2024-04-12T03:47:14.840Z,30.17
2024-04-12T03:49:44.854Z,28.98
2024-04-12T03:52:16.615Z,31.55
2024-04-12T03:54:49.978Z,38.53
2024-04-12T03:57:18.985Z,36.47
2024-04-12T03:59:55.332Z,32.85
2024-04-12T04:02:26.321Z,32.95
2024-04-12T04:05:14.588Z,37.93
2024-04-12T04:07:45.759Z,35.50
2024-04-12T04:10:22.001Z,37.28
2024-04-12T04:12:51.058Z,35.77
2024-04-12T04:15:26.419Z,38.58
2024-04-12T04:17:55.701Z,39.28
2024-04-12T04:20:28.680Z,41.15
2024-04-12T04:23:04.497Z,47.97
2024-04-12T04:25:34.160Z,41.10
2024-04-12T04:28:11.162Z,38.78
2024-04-12T04:30:40.406Z,39.77
2024-04-12T04:33:13.729Z,45.42
2024-04-12T04:35:46.414Z,41.28
2024-04-12T04:38:18.028Z,39.53
2024-04-12T04:40:47.269Z,46.15
2024-04-12T04:43:18.663Z,40.60
2024-04-12T04:45:49.667Z,36.05
2024-04-12T04:48:18.713Z,34.13
2024-04-12T04:50:47.619Z,34.95
2024-04-12T04:53:16.491Z,28.30
2024-04-12T04:55:45.897Z,23.63
2024-04-12T04:58:16.342Z,28.35
2024-04-12T05:00:47.508Z,21.85
2024-04-12T05:03:16.917Z,20.57
2024-04-12T05:05:46.138Z,23.55
2024-04-12T05:08:16.318Z,23.92
2024-04-12T05:10:45.194Z,23.70
2024-04-12T05:13:18.462Z,25.80
2024-04-12T05:15:50.826Z,25.90
2024-04-12T05:18:20.977Z,29.20
2024-04-12T05:20:50.141Z,29.07
2024-04-12T05:23:22.611Z,27.20
2024-04-12T05:25:51.759Z,29.20
2024-04-12T05:28:21.381Z,27.77
2024-04-12T05:30:52.403Z,30.40
2024-04-12T05:33:24.633Z,27.77
2024-04-12T05:35:54.363Z,27.17
2024-04-12T05:38:25.866Z,28.33
2024-04-12T05:40:55.769Z,26.25
2024-04-12T05:43:25.042Z,24.02
2024-04-12T05:45:57.169Z,25.40
2024-04-12T05:48:26.708Z,23.85
2024-04-12T05:50:57.201Z,23.30
2024-04-12T05:53:27.451Z,27.40
2024-04-12T05:56:15.164Z,22.63
2024-04-12T05:58:44.020Z,25.05
2024-04-12T06:01:13.077Z,25.27
2024-04-12T06:03:53.457Z,28.57
2024-04-12T06:06:23.814Z,29.45
2024-04-12T06:08:54.835Z,23.42
2024-04-12T06:11:26.629Z,26.70
2024-04-12T06:13:56.873Z,25.38
2024-04-12T06:16:26.225Z,26.92
2024-04-12T06:18:59.694Z,22.17
2024-04-12T06:21:32.769Z,22.55
2024-04-12T06:24:02.107Z,23.70
2024-04-12T06:26:31.029Z,23.88
2024-04-12T06:29:08.375Z,23.00
2024-04-12T06:31:38.599Z,23.60
2024-04-12T06:34:07.589Z,31.08
2024-04-12T06:36:36.512Z,28.13
2024-04-12T06:39:06.786Z,24.33
2024-04-12T06:41:35.938Z,27.92
2024-04-12T06:44:05.015Z,29.00
2024-04-12T06:46:37.344Z,27.40
2024-04-12T06:49:09.726Z,28.27
2024-04-12T06:52:01.812Z,27.42
2024-04-12T06:54:37.113Z,30.97
2024-04-12T06:57:07.618Z,32.45
2024-04-12T06:59:37.111Z,30.75
2024-04-12T07:02:15.507Z,34.47
2024-04-12T07:04:45.078Z,29.73
2024-04-12T07:07:14.210Z,27.05
2024-04-12T07:09:47.177Z,36.00
2024-04-12T07:12:16.250Z,36.60
2024-04-12T07:14:47.700Z,30.02
2024-04-12T07:17:32.307Z,36.63
2024-04-12T07:20:01.644Z,37.13
2024-04-12T07:22:30.748Z,38.97
2024-04-12T07:25:02.588Z,27.50
2024-04-12T07:27:34.551Z,27.63
2024-04-12T07:30:07.717Z,25.50
2024-04-12T07:32:38.223Z,27.40
2024-04-12T07:35:26.053Z,30.33
2024-04-12T07:38:04.142Z,26.90
2024-04-12T07:40:37.221Z,23.75
2024-04-12T07:43:11.377Z,25.70
2024-04-12T07:45:41.912Z,27.83
2024-04-12T07:48:28.679Z,24.80
2024-04-12T07:51:02.568Z,20.13
2024-04-12T07:53:37.149Z,25.03
2024-04-12T07:56:11.111Z,23.42
2024-04-12T08:01:28.400Z,24.03
2024-04-12T08:03:58.485Z,19.65
2024-04-12T08:06:46.843Z,18.45
2024-04-12T08:48:43.135Z,9.82
2024-04-12T09:04:00.055Z,9.52
2024-04-12T09:06:29.280Z,8.80
2024-04-12T09:09:49.050Z,7.30
2024-04-12T09:12:54.057Z,7.38
2024-04-12T09:23:51.662Z,7.75
2024-04-12T09:48:53.742Z,7.50
2024-04-12T09:55:45.320Z,8.57
2024-04-12T09:58:32.934Z,8.40
2024-04-12T10:01:23.793Z,7.10
2024-04-12T10:04:11.450Z,15.75
2024-04-12T10:07:00.977Z,9.33
2024-04-12T10:09:48.612Z,10.65
2024-04-12T10:12:36.296Z,9.32
2024-04-12T10:15:23.688Z,8.33
2024-04-12T10:18:11.477Z,8.73
2024-04-12T10:20:59.610Z,7.90
2024-04-12T10:23:49.834Z,9.40
2024-04-12T10:26:37.746Z,6.85
2024-04-12T10:29:25.760Z,10.25
2024-04-12T10:32:17.532Z,11.82
2024-04-12T10:35:05.288Z,7.70
2024-04-12T10:37:38.034Z,6.22
2024-04-12T10:40:11.057Z,11.23
2024-04-12T10:42:40.065Z,8.27
2024-04-12T10:45:16.462Z,9.93
2024-04-12T10:47:48.893Z,5.85
2024-04-12T10:50:20.719Z,11.93
2024-04-12T10:55:37.171Z,8.35
2024-04-12T10:58:07.187Z,12.45
2024-04-12T11:00:36.851Z,12.70
2024-04-12T11:03:22.064Z,12.65
2024-04-12T11:06:04.482Z,11.68
2024-04-12T11:08:33.447Z,13.60
2024-04-12T11:11:17.497Z,15.23
2024-04-12T11:17:04.192Z,9.65
2024-04-12T11:19:54.578Z,15.52
2024-04-12T11:22:43.081Z,13.40
2024-04-12T11:25:31.884Z,20.10
2024-04-12T11:28:19.585Z,13.70
2024-04-12T11:31:07.317Z,15.35
2024-04-12T11:33:47.591Z,12.90
2024-04-12T11:36:22.173Z,11.93
2024-04-12T11:38:55.334Z,13.43
2024-04-12T11:41:25.984Z,10.80
2024-04-12T11:43:56.261Z,9.95
2024-04-12T11:46:25.777Z,14.00
2024-04-12T11:57:34.301Z,14.60
2024-04-12T12:00:10.190Z,17.48
2024-04-12T12:02:44.926Z,10.40
2024-04-12T12:05:22.590Z,12.97
2024-04-12T12:07:54.400Z,14.57
2024-04-12T12:10:23.879Z,10.55
2024-04-12T12:12:52.789Z,14.18
2024-04-12T12:15:21.897Z,9.90
2024-04-12T12:17:50.904Z,10.63
2024-04-12T12:20:20.010Z,13.77
2024-04-12T12:22:48.955Z,12.27
2024-04-12T12:25:18.297Z,13.18
2024-04-12T12:27:47.159Z,12.70
2024-04-12T12:30:16.405Z,15.70
2024-04-12T12:32:46.484Z,15.98
2024-04-12T12:35:20.366Z,11.35
2024-04-12T12:37:49.902Z,11.57
2024-04-12T12:40:23.523Z,9.90
2024-04-12T12:42:59.057Z,14.57
2024-04-12T12:45:29.284Z,12.48
2024-04-12T12:47:59.273Z,20.00
2024-04-12T12:50:30.455Z,13.13
2024-04-12T12:53:00.741Z,15.32
2024-04-12T12:55:30.775Z,12.87
2024-04-12T12:58:13.048Z,17.13
2024-04-12T13:00:48.838Z,12.30
2024-04-12T13:03:27.130Z,10.50
2024-04-12T13:05:57.140Z,17.27
2024-04-12T13:11:17.120Z,11.50
2024-04-12T13:13:47.591Z,9.03
2024-04-12T13:25:18.117Z,16.33
2024-04-12T13:28:02.181Z,17.23
2024-04-12T13:30:34.449Z,15.35
2024-04-12T13:33:03.628Z,12.30
2024-04-12T14:11:17.725Z,17.52
2024-04-12T14:17:55.793Z,15.32
2024-04-12T14:20:24.909Z,12.77
2024-04-12T14:22:56.322Z,15.95
2024-04-12T14:25:27.762Z,14.33
2024-04-12T14:31:09.020Z,16.83
2024-04-12T14:43:13.243Z,12.63
2024-04-12T14:55:16.608Z,13.00
2024-04-12T16:21:42.009Z,10.93
2024-04-12T16:41:45.319Z,13.63
2024-04-12T17:19:03.529Z,11.38
2024-04-12T17:47:41.158Z,14.90
2024-04-12T17:55:14.304Z,16.70
2024-04-12T18:23:58.931Z,11.88
2024-04-12T18:48:46.109Z,13.63
2024-04-12T19:12:51.509Z,17.07
2024-04-12T19:54:33.618Z,15.57
2024-04-12T20:18:31.502Z,12.23
2024-04-12T20:52:27.532Z,17.90
2024-04-12T21:42:33.101Z,15.77
2024-04-12T22:24:31.739Z,16.17
2024-04-12T22:35:44.696Z,10.75
2024-04-12T22:42:40.803Z,12.93
2024-04-12T23:53:56.748Z,7.13
